Oberon — ZCEB5 — position and weather

sailwx.info

Track history (hours):
 
Tides and Currents Weather Stations Pressure Air Temp Water Temp Dewpoint Dewpoint Depression Visibility Wind Speed Wind Dir Waves Ship Positions

Oberon

Last reported at 2014-Nov-27 07:33 UTC. Time now 2014-Nov-27 08:06 UTC.
Position N 32°44' W 117°20'.

Length 49 m; draft 3.8 m.

Type: Ship. MMSI: 310586000.

Date/timePositionNaut miles runAvg speedWind from/ knotsBaromVisibWave heightAir tempDewpointWater temp
2014-Nov-27 07:33N 32°44' W 117°20'1817.7
2014-Nov-27 06:33N 32°58' W 117°33'1717.4
2014-Nov-27 05:33N 33°11' W 117°46'1817.5
2014-Nov-27 04:33N 33°25' W 117°60'1817.7
2014-Nov-27 03:33N 33°39' W 118°13'0 0.1
2014-Nov-26 23:33N 33°39' W 118°13'1818.6
2014-Nov-26 22:33N 33°23' W 118°01'1616.0
2014-Nov-26 21:33N 33°10' W 117°51'1010.3
2014-Nov-26 20:34N 33°01' W 117°45'1919.0
2014-Nov-26 19:34N 32°45' W 117°33'  
Track history (hours):
 
Tides and Currents Weather Stations Pressure Air Temp Water Temp Dewpoint Dewpoint Depression Visibility Wind Speed Wind Dir Waves Ship Positions

Oberon

Last reported at 2014-Nov-27 07:33 UTC. Time now 2014-Nov-27 08:06 UTC.
Position N 32°44' W 117°20'.

Length 49 m; draft 3.8 m.

Type: Ship. MMSI: 310586000.

Date/timePositionNaut miles runAvg speedWind from/ knotsBaromVisibWave heightAir tempDewpointWater temp
2014-Nov-27 07:33N 32°44' W 117°20'1817.7
2014-Nov-27 06:33N 32°58' W 117°33'1717.4
2014-Nov-27 05:33N 33°11' W 117°46'1817.5
2014-Nov-27 04:33N 33°25' W 117°60'1817.7
2014-Nov-27 03:33N 33°39' W 118°13'0 0.1
2014-Nov-26 23:33N 33°39' W 118°13'1818.6
2014-Nov-26 22:33N 33°23' W 118°01'1616.0
2014-Nov-26 21:33N 33°10' W 117°51'1010.3
2014-Nov-26 20:34N 33°01' W 117°45'1919.0
2014-Nov-26 19:34N 32°45' W 117°33'  

Dump ship's entire track history